createdAt,value
2024-01-28T00:02:03.674Z,5.47
2024-01-28T00:04:31.721Z,5.60
2024-01-28T00:06:59.825Z,5.68
2024-01-28T00:09:29.295Z,5.47
2024-01-28T00:11:57.605Z,7.07
2024-01-28T00:14:25.657Z,6.72
2024-01-28T00:16:53.550Z,7.07
2024-01-28T00:19:21.568Z,6.45
2024-01-28T00:21:49.608Z,6.20
2024-01-28T00:24:19.623Z,6.13
2024-01-28T00:26:48.981Z,5.65
2024-01-28T00:29:16.926Z,4.65
2024-01-28T00:31:44.904Z,5.90
2024-01-28T00:34:13.000Z,5.43
2024-01-28T00:36:41.031Z,6.10
2024-01-28T00:39:08.999Z,5.22
2024-01-28T00:41:38.315Z,7.05
2024-01-28T00:44:08.035Z,7.10
2024-01-28T00:46:35.997Z,4.78
2024-01-28T00:49:04.823Z,5.07
2024-01-28T00:51:33.592Z,4.80
2024-01-28T00:54:02.113Z,4.90
2024-01-28T00:56:30.121Z,5.30
2024-01-28T00:58:58.133Z,5.50
2024-01-28T01:01:27.550Z,4.47
2024-01-28T01:03:55.651Z,5.10
2024-01-28T01:06:23.696Z,5.80
2024-01-28T01:08:51.751Z,4.95
2024-01-28T01:11:19.799Z,5.35
2024-01-28T01:13:47.820Z,4.95
2024-01-28T01:16:15.864Z,5.85
2024-01-28T01:18:45.555Z,4.72
2024-01-28T01:21:13.562Z,5.47
2024-01-28T01:23:41.536Z,5.63
2024-01-28T01:26:10.782Z,5.35
2024-01-28T01:28:38.837Z,6.43
2024-01-28T01:31:07.265Z,5.65
2024-01-28T01:33:35.367Z,5.47
2024-01-28T01:36:06.829Z,5.50
2024-01-28T01:38:34.866Z,5.68
2024-01-28T01:41:02.838Z,5.95
2024-01-28T01:43:31.560Z,4.78
2024-01-28T01:45:59.958Z,5.95
2024-01-28T01:48:28.339Z,5.80
2024-01-28T01:50:56.861Z,5.75
2024-01-28T01:53:26.209Z,6.07
2024-01-28T01:55:54.442Z,5.90
2024-01-28T01:58:22.443Z,5.72
2024-01-28T02:00:50.560Z,5.78
2024-01-28T02:03:18.734Z,6.65
2024-01-28T02:05:46.847Z,5.85
2024-01-28T02:08:14.816Z,6.05
2024-01-28T02:10:44.390Z,6.00
2024-01-28T02:13:12.375Z,6.28
2024-01-28T02:15:40.914Z,5.45
2024-01-28T02:18:09.211Z,6.13
2024-01-28T02:20:46.460Z,7.10
2024-01-28T02:23:18.702Z,5.78
2024-01-28T02:25:46.663Z,5.70
2024-01-28T02:28:14.647Z,5.85
2024-01-28T02:30:42.707Z,5.40
2024-01-28T02:33:11.208Z,6.13
2024-01-28T02:35:39.434Z,5.93
2024-01-28T02:38:07.579Z,6.90
2024-01-28T02:40:36.977Z,6.20
2024-01-28T02:43:06.963Z,5.68
2024-01-28T02:45:35.055Z,5.10
2024-01-28T02:48:03.158Z,6.35
2024-01-28T02:50:31.247Z,5.72
2024-01-28T02:52:59.461Z,6.90
2024-01-28T02:55:27.357Z,5.05
2024-01-28T02:57:56.756Z,6.53
2024-01-28T03:00:24.766Z,4.75
2024-01-28T03:02:52.807Z,5.97
2024-01-28T03:05:20.794Z,5.25
2024-01-28T03:07:48.775Z,4.93
2024-01-28T03:10:16.866Z,6.32
2024-01-28T03:12:44.962Z,6.95
2024-01-28T03:15:15.274Z,6.13
2024-01-28T03:17:43.331Z,4.70
2024-01-28T03:20:12.772Z,5.45
2024-01-28T03:22:40.749Z,5.47
2024-01-28T03:25:09.804Z,6.72
2024-01-28T03:27:37.828Z,5.68
2024-01-28T03:30:07.089Z,4.95
2024-01-28T03:35:04.690Z,4.38
2024-01-28T03:37:32.690Z,5.00
2024-01-28T03:40:00.626Z,5.13
2024-01-28T03:42:28.753Z,5.13
2024-01-28T03:44:56.741Z,5.38
2024-01-28T03:47:24.741Z,6.18
2024-01-28T03:49:54.064Z,4.78
2024-01-28T03:57:18.285Z,5.22
2024-01-28T03:59:46.292Z,5.80
2024-01-28T04:02:15.589Z,4.22
2024-01-28T04:04:44.023Z,4.93
2024-01-28T04:07:13.524Z,5.15
2024-01-28T04:09:41.882Z,4.75
2024-01-28T04:12:10.360Z,4.40
2024-01-28T04:14:38.305Z,4.43
2024-01-28T04:17:07.185Z,4.38
2024-01-28T04:19:35.333Z,3.83
2024-01-28T04:22:03.403Z,4.57
2024-01-28T04:24:33.068Z,4.82
2024-01-28T04:27:01.110Z,4.35
2024-01-28T04:29:29.379Z,4.18
2024-01-28T04:31:57.319Z,4.35
2024-01-28T04:34:26.014Z,5.25
2024-01-28T04:36:54.046Z,4.25
2024-01-28T04:39:22.127Z,4.63
2024-01-28T04:41:51.515Z,3.67
2024-01-28T04:44:22.072Z,4.88
2024-01-28T04:46:51.144Z,4.63
2024-01-28T04:49:19.199Z,4.28
2024-01-28T04:51:47.293Z,4.25
2024-01-28T04:54:16.036Z,4.80
2024-01-28T04:56:44.312Z,4.43
2024-01-28T04:59:13.630Z,4.45
2024-01-28T05:04:09.718Z,3.83
2024-01-28T05:06:38.024Z,4.53
2024-01-28T05:09:07.717Z,3.95
2024-01-28T05:11:36.329Z,4.47
2024-01-28T05:14:05.479Z,4.22
2024-01-28T05:16:35.121Z,4.57
2024-01-28T05:19:03.884Z,4.57
2024-01-28T05:21:32.162Z,4.78
2024-01-28T05:24:01.606Z,3.90
2024-01-28T05:26:29.614Z,2.78
2024-01-28T05:28:58.904Z,3.15
2024-01-28T05:33:56.110Z,4.25
2024-01-28T05:36:24.175Z,3.97
2024-01-28T05:38:52.117Z,4.07
2024-01-28T05:41:20.099Z,3.50
2024-01-28T05:43:48.580Z,3.50
2024-01-28T05:46:16.621Z,3.88
2024-01-28T05:48:44.886Z,3.47
2024-01-28T05:51:14.381Z,3.38
2024-01-28T05:53:42.564Z,3.97
2024-01-28T05:56:11.108Z,3.65
2024-01-28T05:58:39.102Z,3.33
2024-01-28T06:01:09.774Z,2.47
2024-01-28T06:03:38.773Z,3.05
2024-01-28T06:06:07.165Z,3.70
2024-01-28T06:08:36.707Z,4.15
2024-01-28T06:11:04.740Z,3.90
2024-01-28T06:13:32.874Z,3.53
2024-01-28T06:16:01.565Z,4.30
2024-01-28T06:18:29.580Z,3.63
2024-01-28T06:20:57.550Z,4.10
2024-01-28T06:23:25.459Z,3.60
2024-01-28T06:25:54.744Z,3.35
2024-01-28T06:35:46.418Z,3.03
2024-01-28T06:38:14.593Z,3.15
2024-01-28T06:40:42.577Z,4.10
2024-01-28T06:43:13.122Z,4.22
2024-01-28T06:45:42.176Z,3.22
2024-01-28T06:48:10.204Z,3.20
2024-01-28T06:50:38.203Z,3.92
2024-01-28T06:53:06.441Z,3.83
2024-01-28T06:55:34.479Z,3.80
2024-01-28T06:58:02.601Z,3.88
2024-01-28T07:00:32.053Z,3.65
2024-01-28T07:03:00.230Z,3.42
2024-01-28T07:05:29.619Z,3.30
2024-01-28T07:07:57.646Z,3.83
2024-01-28T07:10:28.345Z,3.50
2024-01-28T07:12:57.414Z,4.47
2024-01-28T07:15:25.568Z,4.05
2024-01-28T07:17:54.942Z,3.47
2024-01-28T07:20:23.003Z,4.10
2024-01-28T07:22:50.972Z,3.92
2024-01-28T07:25:18.961Z,3.58
2024-01-28T07:27:47.941Z,3.83
2024-01-28T07:30:16.591Z,3.10
2024-01-28T07:32:45.966Z,4.05
2024-01-28T07:35:16.934Z,2.45
2024-01-28T07:37:44.997Z,2.92
2024-01-28T07:40:13.484Z,3.33
2024-01-28T07:42:41.716Z,2.75
2024-01-28T07:45:11.497Z,3.50
2024-01-28T07:47:43.106Z,3.58
2024-01-28T07:50:12.806Z,2.97
2024-01-28T07:55:13.358Z,3.25
2024-01-28T07:57:41.442Z,3.63
2024-01-28T08:00:12.273Z,4.65
2024-01-28T08:02:41.151Z,4.00
2024-01-28T08:05:09.754Z,3.38
2024-01-28T08:07:37.784Z,3.58
2024-01-28T08:10:08.404Z,4.05
2024-01-28T08:12:36.496Z,3.47
2024-01-28T08:15:04.987Z,3.72
2024-01-28T08:17:32.960Z,3.83
2024-01-28T08:20:00.977Z,3.80
2024-01-28T08:22:28.914Z,3.30
2024-01-28T08:24:57.008Z,4.07
2024-01-28T08:27:26.464Z,3.50
2024-01-28T08:29:54.437Z,3.65
2024-01-28T08:32:22.398Z,3.85
2024-01-28T08:34:52.484Z,3.45
2024-01-28T08:37:22.726Z,3.20
2024-01-28T08:39:50.975Z,3.63
2024-01-28T08:42:20.345Z,3.65
2024-01-28T08:44:49.933Z,2.80
2024-01-28T08:47:17.941Z,2.45
2024-01-28T08:49:46.112Z,3.55
2024-01-28T08:52:14.134Z,3.92
2024-01-28T08:54:45.531Z,3.00
2024-01-28T08:57:14.325Z,3.00
2024-01-28T08:59:42.343Z,3.60
2024-01-28T09:02:11.651Z,3.60
2024-01-28T09:04:39.860Z,2.60
2024-01-28T09:07:08.079Z,2.60
2024-01-28T09:09:36.160Z,3.28
2024-01-28T09:12:04.613Z,2.92
2024-01-28T09:14:32.586Z,2.88
2024-01-28T09:17:00.554Z,3.53
2024-01-28T09:19:29.898Z,3.28
2024-01-28T09:21:57.975Z,2.55
2024-01-28T09:24:25.987Z,3.35
2024-01-28T09:26:53.996Z,2.60
2024-01-28T09:29:21.996Z,1.85
2024-01-28T09:31:50.182Z,2.70
2024-01-28T09:34:19.024Z,2.90
2024-01-28T09:36:48.468Z,2.88
2024-01-28T09:39:16.607Z,3.35
2024-01-28T09:41:50.093Z,3.00
2024-01-28T09:44:18.293Z,2.78
2024-01-28T09:46:46.816Z,2.58
2024-01-28T09:49:17.746Z,2.15
2024-01-28T09:51:46.399Z,2.70
2024-01-28T09:54:15.849Z,2.30
2024-01-28T09:56:46.188Z,3.20
2024-01-28T09:59:16.743Z,2.17
2024-01-28T10:01:45.634Z,2.10
2024-01-28T10:04:15.449Z,2.38
2024-01-28T10:06:43.523Z,2.40
2024-01-28T10:09:11.802Z,2.78
2024-01-28T10:11:41.627Z,2.72
2024-01-28T10:14:11.629Z,2.17
2024-01-28T10:16:39.907Z,2.65
2024-01-28T10:19:08.016Z,2.22
2024-01-28T10:21:36.577Z,2.17
2024-01-28T10:24:04.642Z,1.27
2024-01-28T10:26:34.975Z,2.05
2024-01-28T10:29:07.932Z,2.40
2024-01-28T10:31:35.947Z,1.90
2024-01-28T10:34:04.210Z,3.28
2024-01-28T10:36:35.777Z,2.65
2024-01-28T10:39:06.181Z,2.33
2024-01-28T10:41:34.952Z,2.80
2024-01-28T10:44:09.523Z,2.65
2024-01-28T10:46:39.693Z,2.05
2024-01-28T10:49:08.992Z,2.42
2024-01-28T10:51:38.732Z,2.35
2024-01-28T10:54:08.568Z,2.17
2024-01-28T10:56:38.027Z,2.47
2024-01-28T10:59:06.121Z,2.03
2024-01-28T11:01:36.996Z,2.25
2024-01-28T11:04:06.767Z,1.88
2024-01-28T11:06:35.020Z,2.22
2024-01-28T11:09:04.450Z,2.03
2024-01-28T11:11:32.507Z,2.33
2024-01-28T11:14:00.488Z,2.20
2024-01-28T11:16:31.925Z,1.63
2024-01-28T11:19:08.712Z,2.22
2024-01-28T11:21:39.512Z,2.28
2024-01-28T11:24:08.233Z,1.92
2024-01-28T11:26:41.086Z,2.30
2024-01-28T11:29:11.286Z,2.33
2024-01-28T11:31:42.295Z,2.33
2024-01-28T11:34:22.412Z,2.03
2024-01-28T11:36:52.897Z,2.38
2024-01-28T11:39:34.834Z,2.00
2024-01-28T11:42:03.779Z,2.35
2024-01-28T11:44:40.648Z,1.60
2024-01-28T11:47:12.449Z,2.30
2024-01-28T11:49:44.018Z,1.67
2024-01-28T11:52:12.716Z,2.58
2024-01-28T11:54:44.528Z,1.67
2024-01-28T11:57:12.855Z,3.08
2024-01-28T11:59:40.908Z,1.73
2024-01-28T12:02:10.309Z,2.03
2024-01-28T12:04:42.561Z,2.40
2024-01-28T12:07:10.700Z,2.17
2024-01-28T12:09:39.847Z,2.58
2024-01-28T12:12:09.327Z,2.08
2024-01-28T12:14:37.454Z,1.83
2024-01-28T12:17:05.994Z,2.03
2024-01-28T12:19:34.127Z,2.78
2024-01-28T12:22:03.534Z,1.88
2024-01-28T12:24:32.285Z,2.10
2024-01-28T12:27:00.557Z,1.90
2024-01-28T12:29:28.669Z,2.25
2024-01-28T12:31:56.892Z,2.97
2024-01-28T12:34:28.425Z,3.17
2024-01-28T12:36:56.529Z,1.85
2024-01-28T12:39:26.083Z,2.42
2024-01-28T12:41:54.200Z,2.45
2024-01-28T12:44:22.161Z,1.67
2024-01-28T12:46:50.167Z,1.95
2024-01-28T12:49:18.230Z,2.38
2024-01-28T12:51:46.313Z,2.50
2024-01-28T12:54:15.064Z,2.60
2024-01-28T12:56:44.403Z,2.03
2024-01-28T12:59:12.404Z,2.03
2024-01-28T13:01:40.499Z,3.38
2024-01-28T13:04:08.737Z,2.10
2024-01-28T13:06:36.863Z,2.75
2024-01-28T13:09:10.246Z,2.65
2024-01-28T13:11:38.271Z,2.70
2024-01-28T13:14:07.710Z,2.65
2024-01-28T13:16:37.669Z,2.15
2024-01-28T13:19:05.992Z,1.90
2024-01-28T13:21:34.097Z,1.98
2024-01-28T13:24:03.223Z,1.98
2024-01-28T13:26:30.246Z,2.47
2024-01-28T13:28:58.245Z,2.15
2024-01-28T13:31:28.051Z,2.25
2024-01-28T13:33:56.212Z,2.20
2024-01-28T13:36:24.489Z,2.20
2024-01-28T13:38:52.541Z,2.55
2024-01-28T13:41:20.468Z,2.05
2024-01-28T13:43:49.490Z,1.75
2024-01-28T13:46:17.678Z,2.78
2024-01-28T13:48:47.122Z,2.38
2024-01-28T13:51:15.226Z,1.77
2024-01-28T13:53:43.194Z,2.53
2024-01-28T13:56:11.187Z,2.72
2024-01-28T13:58:39.224Z,2.25
2024-01-28T14:01:07.332Z,2.80
2024-01-28T14:03:35.880Z,2.25
2024-01-28T14:06:06.237Z,1.92
2024-01-28T14:08:34.302Z,2.28
2024-01-28T14:11:02.261Z,2.38
2024-01-28T14:13:30.188Z,2.38
2024-01-28T14:15:58.227Z,2.05
2024-01-28T14:18:26.311Z,2.25
2024-01-28T14:20:54.363Z,1.60
2024-01-28T14:23:23.718Z,2.45
2024-01-28T14:25:52.148Z,2.45
2024-01-28T14:28:20.094Z,2.08
2024-01-28T14:30:48.138Z,2.13
2024-01-28T14:33:16.331Z,2.47
2024-01-28T14:35:44.449Z,2.00
2024-01-28T14:38:12.482Z,2.88
2024-01-28T14:40:41.822Z,1.65
2024-01-28T14:43:09.838Z,2.83
2024-01-28T14:45:37.992Z,2.45
2024-01-28T14:48:06.804Z,2.45
2024-01-28T14:50:37.892Z,2.15
2024-01-28T14:53:05.921Z,2.50
2024-01-28T14:55:34.113Z,2.58
2024-01-28T14:58:03.585Z,2.42
2024-01-28T15:00:31.596Z,3.05
2024-01-28T15:02:59.696Z,2.63
2024-01-28T15:05:27.657Z,2.75
2024-01-28T15:07:56.037Z,2.00
2024-01-28T15:10:25.120Z,3.22
2024-01-28T15:12:53.225Z,2.42
2024-01-28T15:15:22.633Z,3.25
2024-01-28T15:17:52.686Z,2.30
2024-01-28T15:20:22.097Z,3.28
2024-01-28T15:22:50.481Z,3.47
2024-01-28T15:25:19.558Z,2.25
2024-01-28T15:27:47.744Z,2.65
2024-01-28T15:30:16.357Z,2.85
2024-01-28T15:32:47.170Z,2.38
2024-01-28T15:35:15.387Z,2.95
2024-01-28T15:37:43.377Z,2.35
2024-01-28T15:40:13.001Z,2.67
2024-01-28T15:42:41.564Z,3.28
2024-01-28T15:45:10.780Z,2.38
2024-01-28T15:47:39.042Z,2.63
2024-01-28T15:50:09.883Z,3.22
2024-01-28T15:52:37.877Z,2.90
2024-01-28T15:55:06.549Z,3.20
2024-01-28T15:57:34.636Z,3.25
2024-01-28T16:00:07.365Z,3.17
2024-01-28T16:02:36.312Z,2.67
2024-01-28T16:05:04.455Z,3.65
2024-01-28T16:07:34.125Z,3.33
2024-01-28T16:10:02.198Z,3.75
2024-01-28T16:12:30.443Z,3.42
2024-01-28T16:14:58.505Z,3.15
2024-01-28T16:17:27.759Z,3.85
2024-01-28T16:19:55.958Z,4.35
2024-01-28T16:22:24.131Z,5.60
2024-01-28T16:24:53.676Z,3.78
2024-01-28T16:27:21.683Z,4.20
2024-01-28T16:29:49.684Z,4.00
2024-01-28T16:32:17.653Z,4.55
2024-01-28T16:34:47.058Z,3.90
2024-01-28T16:37:15.274Z,3.90
2024-01-28T16:39:43.272Z,4.20
2024-01-28T16:42:12.585Z,4.05
2024-01-28T16:44:40.517Z,3.67
2024-01-28T16:47:10.347Z,3.65
2024-01-28T16:49:38.550Z,4.57
2024-01-28T16:52:06.872Z,4.05
2024-01-28T16:54:34.831Z,4.95
2024-01-28T16:57:02.845Z,3.83
2024-01-28T16:59:32.668Z,4.07
2024-01-28T17:02:00.703Z,4.38
2024-01-28T17:04:28.676Z,4.68
2024-01-28T17:06:57.732Z,4.88
2024-01-28T17:09:25.813Z,5.03
2024-01-28T17:11:54.423Z,6.20
2024-01-28T17:14:24.786Z,5.57
2024-01-28T17:16:54.191Z,5.80
2024-01-28T17:19:22.145Z,4.05
2024-01-28T17:21:50.279Z,5.20
2024-01-28T17:24:19.472Z,5.20
2024-01-28T17:26:47.518Z,5.65
2024-01-28T17:29:15.527Z,6.40
2024-01-28T17:31:43.473Z,6.07
2024-01-28T17:34:13.704Z,4.43
2024-01-28T17:36:42.043Z,5.25
2024-01-28T17:39:10.892Z,5.32
2024-01-28T17:41:39.689Z,6.35
2024-01-28T17:44:07.909Z,6.47
2024-01-28T17:46:35.950Z,6.07
2024-01-28T17:49:05.129Z,6.82
2024-01-28T17:51:34.741Z,6.47
2024-01-28T17:54:02.909Z,6.75
2024-01-28T17:56:30.919Z,7.43
2024-01-28T17:58:58.893Z,6.20
2024-01-28T18:01:28.567Z,5.38
2024-01-28T18:03:56.662Z,6.18
2024-01-28T18:06:25.954Z,5.18
2024-01-28T18:08:55.316Z,5.03
2024-01-28T18:11:23.277Z,5.43
2024-01-28T18:13:51.275Z,5.95
2024-01-28T18:16:19.815Z,5.47
2024-01-28T18:18:49.213Z,5.70
2024-01-28T18:21:17.489Z,4.82
2024-01-28T18:23:45.525Z,5.10
2024-01-28T18:26:14.997Z,5.03
2024-01-28T18:28:42.999Z,5.85
2024-01-28T18:31:10.920Z,6.30
2024-01-28T18:33:39.241Z,5.68
2024-01-28T18:36:08.171Z,5.50
2024-01-28T18:38:35.260Z,4.97
2024-01-28T18:41:05.923Z,5.25
2024-01-28T18:43:35.269Z,5.55
2024-01-28T18:46:03.762Z,7.05
2024-01-28T18:48:33.351Z,6.10
2024-01-28T18:51:01.463Z,5.35
2024-01-28T18:53:29.780Z,5.63
2024-01-28T18:55:57.818Z,4.85
2024-01-28T18:58:26.160Z,4.80
2024-01-28T19:00:55.627Z,4.78
2024-01-28T19:03:23.836Z,4.80
2024-01-28T19:05:52.011Z,5.07
2024-01-28T19:08:20.364Z,5.25
2024-01-28T19:10:48.337Z,5.20
2024-01-28T19:13:16.328Z,4.82
2024-01-28T19:15:47.216Z,5.43
2024-01-28T19:18:16.988Z,4.53
2024-01-28T19:20:45.774Z,4.88
2024-01-28T19:23:14.000Z,5.15
2024-01-28T19:25:42.671Z,4.57
2024-01-28T19:28:10.643Z,4.75
2024-01-28T19:30:38.852Z,5.80
2024-01-28T19:33:07.666Z,4.85
2024-01-28T19:35:40.703Z,5.05
2024-01-28T19:38:08.700Z,5.32
2024-01-28T19:40:36.690Z,5.35
2024-01-28T19:43:05.022Z,4.53
2024-01-28T19:45:33.058Z,4.35
2024-01-28T19:48:01.174Z,4.47
2024-01-28T19:50:29.346Z,4.20
2024-01-28T19:52:58.616Z,5.00
2024-01-28T19:55:26.641Z,4.60
2024-01-28T19:57:54.754Z,4.38
2024-01-28T20:00:23.041Z,4.40
2024-01-28T20:02:51.487Z,4.10
2024-01-28T20:05:19.787Z,4.05
2024-01-28T20:07:47.833Z,4.28
2024-01-28T20:10:18.742Z,4.50
2024-01-28T20:12:46.968Z,5.63
2024-01-28T20:15:15.118Z,5.97
2024-01-28T20:17:43.114Z,5.60
2024-01-28T20:20:13.219Z,4.68
2024-01-28T20:22:41.580Z,4.00
2024-01-28T20:25:10.420Z,4.75
2024-01-28T20:27:40.489Z,5.20
2024-01-28T20:30:09.546Z,5.28
2024-01-28T20:35:06.826Z,5.43
2024-01-28T20:37:34.874Z,4.95
2024-01-28T20:40:02.989Z,5.35
2024-01-28T20:42:31.043Z,5.50
2024-01-28T20:45:00.415Z,6.15
2024-01-28T20:47:28.458Z,6.10
2024-01-28T20:49:56.537Z,5.72
2024-01-28T20:52:24.573Z,4.50
2024-01-28T20:54:52.650Z,5.72
2024-01-28T20:57:21.056Z,6.43
2024-01-28T20:59:49.068Z,5.63
2024-01-28T21:02:18.411Z,5.30
2024-01-28T21:04:46.560Z,5.78
2024-01-28T21:07:15.092Z,5.25
2024-01-28T21:09:43.284Z,5.65
2024-01-28T21:12:11.607Z,5.38
2024-01-28T21:14:39.682Z,5.50
2024-01-28T21:17:07.718Z,6.35
2024-01-28T21:19:37.796Z,6.78
2024-01-28T21:22:06.210Z,6.40
2024-01-28T21:24:34.428Z,7.43
2024-01-28T21:27:02.423Z,7.20
2024-01-28T21:29:33.257Z,7.53
2024-01-28T21:32:01.512Z,7.30
2024-01-28T21:34:30.449Z,6.63
2024-01-28T21:39:28.059Z,7.90
2024-01-28T21:41:56.686Z,8.65
2024-01-28T21:44:26.034Z,7.95
2024-01-28T21:46:54.948Z,7.85
2024-01-28T21:49:23.664Z,7.78
2024-01-28T21:51:51.957Z,8.68
2024-01-28T21:54:21.325Z,7.72
2024-01-28T21:56:49.306Z,9.88
2024-01-28T21:59:17.272Z,7.85
2024-01-28T22:01:45.270Z,11.45
2024-01-28T22:04:13.431Z,9.25
2024-01-28T22:06:41.607Z,7.45
2024-01-28T22:09:09.654Z,7.30
2024-01-28T22:11:40.723Z,7.00
2024-01-28T22:14:08.873Z,7.10
2024-01-28T22:16:36.847Z,7.38
2024-01-28T22:19:05.765Z,7.32
2024-01-28T22:24:02.095Z,7.18
2024-01-28T22:26:30.087Z,6.53
2024-01-28T22:28:59.494Z,6.75
2024-01-28T22:31:28.523Z,7.15
2024-01-28T22:36:25.767Z,6.60
2024-01-28T22:38:53.926Z,5.82
2024-01-28T22:41:21.921Z,5.65
2024-01-28T22:43:49.974Z,6.45
2024-01-28T22:46:19.541Z,6.03
2024-01-28T22:48:47.851Z,6.80
2024-01-28T22:51:15.980Z,5.70
2024-01-28T22:53:43.962Z,5.47
2024-01-28T22:56:12.855Z,7.03
2024-01-28T22:58:39.870Z,6.70
2024-01-28T23:01:10.952Z,6.13
2024-01-28T23:03:40.470Z,6.93
2024-01-28T23:06:11.231Z,5.80
2024-01-28T23:08:39.274Z,4.80
2024-01-28T23:11:07.944Z,5.40
2024-01-28T23:13:36.828Z,5.25
2024-01-28T23:16:05.528Z,4.72
2024-01-28T23:18:33.809Z,4.70
2024-01-28T23:21:03.774Z,5.60
2024-01-28T23:23:31.893Z,4.65
2024-01-28T23:25:59.867Z,5.38
2024-01-28T23:28:27.851Z,5.38
2024-01-28T23:30:56.530Z,4.53
2024-01-28T23:33:24.708Z,4.55
2024-01-28T23:35:52.759Z,4.30
2024-01-28T23:38:22.114Z,4.70
2024-01-28T23:40:50.860Z,5.00
2024-01-28T23:43:19.345Z,4.75
2024-01-28T23:45:47.322Z,5.03
2024-01-28T23:48:15.388Z,4.57
2024-01-28T23:50:43.564Z,4.20
2024-01-28T23:53:11.565Z,4.90
2024-01-28T23:55:40.869Z,4.78
2024-01-28T23:58:08.833Z,4.30
